sensor_id;sensor_type;location;lat;lon;timestamp;pressure;altitude;pressure_sealevel;temperature;humidity
43312;BME280;30041;48.300;16.352;2023-06-24T00:01:26;100107.34;;;26.07;50.61
43312;BME280;30041;48.300;16.352;2023-06-24T00:03:52;100101.66;;;26.08;50.37
43312;BME280;30041;48.300;16.352;2023-06-24T00:06:17;100109.00;;;26.08;50.20
43312;BME280;30041;48.300;16.352;2023-06-24T00:08:46;100103.56;;;26.08;50.37
43312;BME280;30041;48.300;16.352;2023-06-24T00:11:11;100102.47;;;26.09;50.08
43312;BME280;30041;48.300;16.352;2023-06-24T00:13:37;100110.38;;;26.11;50.58
43312;BME280;30041;48.300;16.352;2023-06-24T00:16:03;100110.63;;;26.09;50.15
43312;BME280;30041;48.300;16.352;2023-06-24T00:18:28;100114.41;;;26.08;50.24
43312;BME280;30041;48.300;16.352;2023-06-24T00:20:54;100106.00;;;26.09;50.53
43312;BME280;30041;48.300;16.352;2023-06-24T00:23:22;100111.19;;;26.11;50.09
43312;BME280;30041;48.300;16.352;2023-06-24T00:25:48;100095.41;;;26.08;50.46
43312;BME280;30041;48.300;16.352;2023-06-24T00:28:13;100098.41;;;26.12;50.15
43312;BME280;30041;48.300;16.352;2023-06-24T00:30:38;100103.03;;;26.11;50.42
43312;BME280;30041;48.300;16.352;2023-06-24T00:33:04;100111.19;;;26.11;50.20
43312;BME280;30041;48.300;16.352;2023-06-24T00:35:29;100100.31;;;26.11;50.13
43312;BME280;30041;48.300;16.352;2023-06-24T00:37:55;100103.59;;;26.13;50.01
43312;BME280;30041;48.300;16.352;2023-06-24T00:40:20;100117.19;;;26.13;50.43
43312;BME280;30041;48.300;16.352;2023-06-24T00:42:46;100113.38;;;26.14;50.21
43312;BME280;30041;48.300;16.352;2023-06-24T00:45:12;100102.78;;;26.13;50.02
43312;BME280;30041;48.300;16.352;2023-06-24T00:47:38;100103.03;;;26.11;50.38
43312;BME280;30041;48.300;16.352;2023-06-24T00:50:04;100102.78;;;26.13;50.27
43312;BME280;30041;48.300;16.352;2023-06-24T00:52:30;100097.84;;;26.09;50.42
43312;BME280;30041;48.300;16.352;2023-06-24T00:54:55;100105.19;;;26.09;50.36
43312;BME280;30041;48.300;16.352;2023-06-24T00:57:21;100108.22;;;26.13;50.17
43312;BME280;30041;48.300;16.352;2023-06-24T00:59:47;100117.19;;;26.13;50.28
43312;BME280;30041;48.300;16.352;2023-06-24T01:02:13;100108.22;;;26.13;50.38
43312;BME280;30041;48.300;16.352;2023-06-24T01:04:38;100102.50;;;26.14;50.03
43312;BME280;30041;48.300;16.352;2023-06-24T01:07:05;100098.47;;;26.17;50.13
43312;BME280;30041;48.300;16.352;2023-06-24T01:09:31;100107.44;;;26.17;50.28
43312;BME280;30041;48.300;16.352;2023-06-24T01:11:56;100109.34;;;26.17;50.15
43312;BME280;30041;48.300;16.352;2023-06-24T01:14:22;100115.03;;;26.15;50.44
43312;BME280;30041;48.300;16.352;2023-06-24T01:17:09;100117.19;;;26.13;50.24
43312;BME280;30041;48.300;16.352;2023-06-24T01:19:59;100104.16;;;26.15;50.23
43312;BME280;30041;48.300;16.352;2023-06-24T01:32:48;100113.94;;;26.16;50.39
43312;BME280;30041;48.300;16.352;2023-06-24T01:35:20;100111.78;;;26.18;50.28
43312;BME280;30041;48.300;16.352;2023-06-24T01:37:56;100119.38;;;26.16;50.23
43312;BME280;30041;48.300;16.352;2023-06-24T01:40:31;100128.38;;;26.17;50.08
43312;BME280;30041;48.300;16.352;2023-06-24T01:43:01;100127.28;;;26.18;50.25
43312;BME280;30041;48.300;16.352;2023-06-24T01:45:30;100114.50;;;26.18;50.29
43312;BME280;30041;48.300;16.352;2023-06-24T01:48:30;100121.84;;;26.18;50.45
43312;BME280;30041;48.300;16.352;2023-06-24T01:51:01;100126.47;;;26.17;50.22
43312;BME280;30041;48.300;16.352;2023-06-24T01:53:28;100119.13;;;26.18;50.12
43312;BME280;30041;48.300;16.352;2023-06-24T01:55:58;100130.81;;;26.18;50.25
43312;BME280;30041;48.300;16.352;2023-06-24T01:58:25;100136.22;;;26.18;50.10
43312;BME280;30041;48.300;16.352;2023-06-24T02:00:52;100149.00;;;26.18;50.19
43312;BME280;30041;48.300;16.352;2023-06-24T02:03:19;100136.22;;;26.18;50.13
43312;BME280;30041;48.300;16.352;2023-06-24T02:05:47;100132.47;;;26.19;50.13
43312;BME280;30041;48.300;16.352;2023-06-24T02:08:14;100140.59;;;26.19;49.97
43312;BME280;30041;48.300;16.352;2023-06-24T02:10:42;100133.53;;;26.18;50.27
43312;BME280;30041;48.300;16.352;2023-06-24T02:13:09;100125.38;;;26.18;50.16
43312;BME280;30041;48.300;16.352;2023-06-24T02:15:38;100127.03;;;26.19;50.24
43312;BME280;30041;48.300;16.352;2023-06-24T02:18:05;100140.59;;;26.19;50.28
43312;BME280;30041;48.300;16.352;2023-06-24T02:20:31;100133.28;;;26.20;50.16
43312;BME280;30041;48.300;16.352;2023-06-24T02:22:58;100125.94;;;26.20;50.12
43312;BME280;30041;48.300;16.352;2023-06-24T02:25:25;100119.44;;;26.21;49.96
43312;BME280;30041;48.300;16.352;2023-06-24T02:27:52;100119.44;;;26.21;50.14
43312;BME280;30041;48.300;16.352;2023-06-24T02:30:19;100116.16;;;26.19;50.35
43312;BME280;30041;48.300;16.352;2023-06-24T02:32:46;100125.94;;;26.20;50.20
43312;BME280;30041;48.300;16.352;2023-06-24T02:35:11;100122.41;;;26.20;50.03
43312;BME280;30041;48.300;16.352;2023-06-24T02:37:37;100124.88;;;26.21;50.22
43312;BME280;30041;48.300;16.352;2023-06-24T02:40:03;100126.75;;;26.21;50.08
43312;BME280;30041;48.300;16.352;2023-06-24T02:42:29;100135.75;;;26.21;50.06
43312;BME280;30041;48.300;16.352;2023-06-24T02:44:54;100135.75;;;26.21;50.09
43312;BME280;30041;48.300;16.352;2023-06-24T02:47:20;100131.94;;;26.22;50.08
43312;BME280;30041;48.300;16.352;2023-06-24T02:49:48;100135.75;;;26.21;50.10
43312;BME280;30041;48.300;16.352;2023-06-24T02:52:15;100139.03;;;26.23;50.21
43312;BME280;30041;48.300;16.352;2023-06-24T02:54:41;100139.28;;;26.22;50.44
43312;BME280;30041;48.300;16.352;2023-06-24T02:57:08;100140.09;;;26.22;50.15
43312;BME280;30041;48.300;16.352;2023-06-24T02:59:34;100146.59;;;26.21;50.22
43312;BME280;30041;48.300;16.352;2023-06-24T03:02:00;100142.22;;;26.20;50.41
43312;BME280;30041;48.300;16.352;2023-06-24T03:04:27;100141.19;;;26.21;50.22
43312;BME280;30041;48.300;16.352;2023-06-24T03:06:53;100143.63;;;26.23;50.15
43312;BME280;30041;48.300;16.352;2023-06-24T03:09:19;100151.50;;;26.24;50.00
43312;BME280;30041;48.300;16.352;2023-06-24T03:11:45;100156.13;;;26.24;50.07
43312;BME280;30041;48.300;16.352;2023-06-24T03:14:11;100158.84;;;26.24;50.13
43312;BME280;30041;48.300;16.352;2023-06-24T03:16:37;100156.38;;;26.22;50.20
43312;BME280;30041;48.300;16.352;2023-06-24T03:19:03;100153.09;;;26.20;49.99
43312;BME280;30041;48.300;16.352;2023-06-24T03:21:29;100148.75;;;26.19;50.27
43312;BME280;30041;48.300;16.352;2023-06-24T03:23:54;100162.91;;;26.21;50.28
43312;BME280;30041;48.300;16.352;2023-06-24T03:26:20;100165.63;;;26.21;50.38
43312;BME280;30041;48.300;16.352;2023-06-24T03:28:46;100159.66;;;26.24;50.36
43312;BME280;30041;48.300;16.352;2023-06-24T03:31:11;100177.31;;;26.22;50.27
43312;BME280;30041;48.300;16.352;2023-06-24T03:33:37;100159.34;;;26.21;50.16
43312;BME280;30041;48.300;16.352;2023-06-24T03:36:03;100164.28;;;26.24;50.20
43312;BME280;30041;48.300;16.352;2023-06-24T03:38:28;100168.34;;;26.21;50.28
43312;BME280;30041;48.300;16.352;2023-06-24T03:40:54;100180.84;;;26.22;50.17
43312;BME280;30041;48.300;16.352;2023-06-24T03:43:19;100176.22;;;26.23;50.09
43312;BME280;30041;48.300;16.352;2023-06-24T03:45:45;100184.94;;;26.25;50.03
43312;BME280;30041;48.300;16.352;2023-06-24T03:48:10;100185.22;;;26.23;50.17
43312;BME280;30041;48.300;16.352;2023-06-24T03:50:36;100175.97;;;26.24;50.18
43312;BME280;30041;48.300;16.352;2023-06-24T03:53:03;100175.97;;;26.24;50.29
43312;BME280;30041;48.300;16.352;2023-06-24T03:55:29;100167.81;;;26.24;50.12
43312;BME280;30041;48.300;16.352;2023-06-24T03:57:54;100168.91;;;26.23;50.48
43312;BME280;30041;48.300;16.352;2023-06-24T04:00:19;100167.81;;;26.24;50.11
43312;BME280;30041;48.300;16.352;2023-06-24T04:02:45;100176.78;;;26.25;50.34
43312;BME280;30041;48.300;16.352;2023-06-24T04:05:10;100167.00;;;26.24;50.10
43312;BME280;30041;48.300;16.352;2023-06-24T04:07:36;100178.69;;;26.24;50.33
43312;BME280;30041;48.300;16.352;2023-06-24T04:10:03;100180.31;;;26.25;50.06
43312;BME280;30041;48.300;16.352;2023-06-24T04:12:29;100179.50;;;26.25;50.14
43312;BME280;30041;48.300;16.352;2023-06-24T04:14:54;100180.88;;;26.27;50.21
43312;BME280;30041;48.300;16.352;2023-06-24T04:17:20;100188.22;;;26.27;50.31
43312;BME280;30041;48.300;16.352;2023-06-24T04:19:45;100193.41;;;26.28;50.24
43312;BME280;30041;48.300;16.352;2023-06-24T04:22:11;100199.91;;;26.27;49.90
43312;BME280;30041;48.300;16.352;2023-06-24T04:24:36;100194.75;;;26.26;50.23
43312;BME280;30041;48.300;16.352;2023-06-24T04:27:02;100193.91;;;26.25;50.30
43312;BME280;30041;48.300;16.352;2023-06-24T04:29:27;100194.75;;;26.26;49.99
43312;BME280;30041;48.300;16.352;2023-06-24T04:31:53;100194.75;;;26.26;50.07
43312;BME280;30041;48.300;16.352;2023-06-24T04:34:18;100202.03;;;26.25;50.03
43312;BME280;30041;48.300;16.352;2023-06-24T04:36:44;100194.75;;;26.26;50.32
43312;BME280;30041;48.300;16.352;2023-06-24T04:39:09;100203.72;;;26.26;50.26
43312;BME280;30041;48.300;16.352;2023-06-24T04:41:35;100194.75;;;26.26;49.97
43312;BME280;30041;48.300;16.352;2023-06-24T04:44:00;100204.75;;;26.25;50.26
43312;BME280;30041;48.300;16.352;2023-06-24T04:46:26;100201.22;;;26.25;50.04
43312;BME280;30041;48.300;16.352;2023-06-24T04:48:51;100208.91;;;26.28;49.82
43312;BME280;30041;48.300;16.352;2023-06-24T04:51:17;100217.28;;;26.26;50.16
43312;BME280;30041;48.300;16.352;2023-06-24T04:53:42;100228.72;;;26.28;50.20
43312;BME280;30041;48.300;16.352;2023-06-24T04:56:08;100225.44;;;26.26;50.18
43312;BME280;30041;48.300;16.352;2023-06-24T04:58:33;100236.88;;;26.28;50.11
43312;BME280;30041;48.300;16.352;2023-06-24T05:00:59;100237.13;;;26.27;50.02
43312;BME280;30041;48.300;16.352;2023-06-24T05:03:24;100237.94;;;26.27;50.20
43312;BME280;30041;48.300;16.352;2023-06-24T05:05:50;100240.66;;;26.27;50.16
43312;BME280;30041;48.300;16.352;2023-06-24T05:08:15;100245.53;;;26.25;50.13
43312;BME280;30041;48.300;16.352;2023-06-24T05:10:41;100235.22;;;26.27;50.09
43312;BME280;30041;48.300;16.352;2023-06-24T05:13:06;100243.38;;;26.27;50.18
43312;BME280;30041;48.300;16.352;2023-06-24T05:15:32;100243.13;;;26.29;50.04
43312;BME280;30041;48.300;16.352;2023-06-24T05:17:57;100236.88;;;26.28;50.10
43312;BME280;30041;48.300;16.352;2023-06-24T05:20:23;100242.56;;;26.27;49.83
43312;BME280;30041;48.300;16.352;2023-06-24T05:22:48;100245.03;;;26.28;50.22
43312;BME280;30041;48.300;16.352;2023-06-24T05:25:14;100245.03;;;26.28;49.90
43312;BME280;30041;48.300;16.352;2023-06-24T05:27:39;100250.47;;;26.28;49.99
43312;BME280;30041;48.300;16.352;2023-06-24T05:30:06;100250.72;;;26.27;50.35
43312;BME280;30041;48.300;16.352;2023-06-24T05:32:31;100256.16;;;26.27;50.06
43312;BME280;30041;48.300;16.352;2023-06-24T05:34:57;100261.56;;;26.27;49.99
43312;BME280;30041;48.300;16.352;2023-06-24T05:37:22;100268.09;;;26.26;50.06
43312;BME280;30041;48.300;16.352;2023-06-24T05:39:47;100262.97;;;26.29;49.90
43312;BME280;30041;48.300;16.352;2023-06-24T05:42:13;100264.53;;;26.25;50.36
43312;BME280;30041;48.300;16.352;2023-06-24T05:44:38;100273.00;;;26.29;50.07
43312;BME280;30041;48.300;16.352;2023-06-24T05:47:04;100272.19;;;26.28;50.04
43312;BME280;30041;48.300;16.352;2023-06-24T05:49:29;100277.88;;;26.27;49.96
43312;BME280;30041;48.300;16.352;2023-06-24T05:51:56;100280.34;;;26.28;49.98
43312;BME280;30041;48.300;16.352;2023-06-24T05:54:21;100275.97;;;26.27;50.14
43312;BME280;30041;48.300;16.352;2023-06-24T05:56:47;100281.97;;;26.29;50.13
43312;BME280;30041;48.300;16.352;2023-06-24T05:59:12;100281.97;;;26.29;50.08
43312;BME280;30041;48.300;16.352;2023-06-24T06:01:38;100285.78;;;26.28;50.12
43312;BME280;30041;48.300;16.352;2023-06-24T06:04:03;100286.59;;;26.29;49.98
43312;BME280;30041;48.300;16.352;2023-06-24T06:06:29;100296.66;;;26.28;50.10
43312;BME280;30041;48.300;16.352;2023-06-24T06:08:54;100298.22;;;26.24;48.22
43312;BME280;30041;48.300;16.352;2023-06-24T06:11:20;100298.69;;;25.77;48.10
43312;BME280;30041;48.300;16.352;2023-06-24T06:13:45;100301.69;;;25.59;49.04
43312;BME280;30041;48.300;16.352;2023-06-24T06:16:10;100308.59;;;25.50;50.05
43312;BME280;30041;48.300;16.352;2023-06-24T06:18:36;100316.31;;;25.58;49.54
43312;BME280;30041;48.300;16.352;2023-06-24T06:21:01;100323.25;;;25.48;49.98
43312;BME280;30041;48.300;16.352;2023-06-24T06:23:27;100314.69;;;25.40;50.64
43312;BME280;30041;48.300;16.352;2023-06-24T06:25:52;100310.50;;;25.32;50.37
43312;BME280;30041;48.300;16.352;2023-06-24T06:28:18;100320.44;;;25.26;50.03
43312;BME280;30041;48.300;16.352;2023-06-24T06:30:43;100313.38;;;25.25;49.75
43312;BME280;30041;48.300;16.352;2023-06-24T06:33:09;100329.31;;;25.22;49.68
43312;BME280;30041;48.300;16.352;2023-06-24T06:35:34;100322.97;;;25.16;49.60
43312;BME280;30041;48.300;16.352;2023-06-24T06:38:00;100322.28;;;25.21;49.41
43312;BME280;30041;48.300;16.352;2023-06-24T06:40:25;100314.25;;;25.14;49.79
43312;BME280;30041;48.300;16.352;2023-06-24T06:42:51;100310.22;;;25.17;49.87
43312;BME280;30041;48.300;16.352;2023-06-24T06:45:16;100317.59;;;25.04;51.27
43312;BME280;30041;48.300;16.352;2023-06-24T06:47:42;100320.31;;;24.88;50.68
43312;BME280;30041;48.300;16.352;2023-06-24T06:50:08;100320.09;;;24.77;50.80
43312;BME280;30041;48.300;16.352;2023-06-24T06:52:33;100326.19;;;24.84;50.42
43312;BME280;30041;48.300;16.352;2023-06-24T06:54:59;100316.28;;;24.90;50.30
43312;BME280;30041;48.300;16.352;2023-06-24T06:57:24;100317.91;;;24.91;49.97
43312;BME280;30041;48.300;16.352;2023-06-24T06:59:50;100331.00;;;24.94;49.95
43312;BME280;30041;48.300;16.352;2023-06-24T07:02:16;100328.88;;;24.96;49.75
43312;BME280;30041;48.300;16.352;2023-06-24T07:04:42;100329.44;;;24.98;50.03
43312;BME280;30041;48.300;16.352;2023-06-24T07:07:07;100329.91;;;24.95;49.98
43312;BME280;30041;48.300;16.352;2023-06-24T07:09:33;100325.66;;;24.99;49.55
43312;BME280;30041;48.300;16.352;2023-06-24T07:11:58;100324.34;;;25.02;49.61
43312;BME280;30041;48.300;16.352;2023-06-24T07:14:24;100326.31;;;25.06;49.77
43312;BME280;30041;48.300;16.352;2023-06-24T07:16:50;100320.91;;;25.06;49.65
43312;BME280;30041;48.300;16.352;2023-06-24T07:19:15;100327.56;;;24.99;50.16
43312;BME280;30041;48.300;16.352;2023-06-24T07:21:41;100332.16;;;24.98;50.43
43312;BME280;30041;48.300;16.352;2023-06-24T07:24:06;100338.28;;;24.77;50.32
43312;BME280;30041;48.300;16.352;2023-06-24T07:26:32;100334.00;;;24.81;50.51
43312;BME280;30041;48.300;16.352;2023-06-24T07:28:58;100338.72;;;24.74;50.33
43312;BME280;30041;48.300;16.352;2023-06-24T07:31:23;100337.69;;;24.75;50.08
43312;BME280;30041;48.300;16.352;2023-06-24T07:33:49;100338.69;;;24.57;50.18
43312;BME280;30041;48.300;16.352;2023-06-24T07:36:14;100338.63;;;24.52;50.03
43312;BME280;30041;48.300;16.352;2023-06-24T07:38:40;100342.59;;;24.49;50.03
43312;BME280;30041;48.300;16.352;2023-06-24T07:41:05;100360.84;;;24.42;49.88
43312;BME280;30041;48.300;16.352;2023-06-24T07:43:31;100356.06;;;24.32;49.86
43312;BME280;30041;48.300;16.352;2023-06-24T07:45:56;100363.38;;;24.32;49.68
43312;BME280;30041;48.300;16.352;2023-06-24T07:48:22;100362.66;;;24.24;49.84
43312;BME280;30041;48.300;16.352;2023-06-24T07:50:47;100358.91;;;24.26;49.81
43312;BME280;30041;48.300;16.352;2023-06-24T07:53:13;100358.41;;;24.29;49.88
43312;BME280;30041;48.300;16.352;2023-06-24T07:55:38;100351.50;;;24.21;49.67
43312;BME280;30041;48.300;16.352;2023-06-24T07:58:04;100360.91;;;24.18;49.79
43312;BME280;30041;48.300;16.352;2023-06-24T08:00:29;100366.78;;;24.15;49.78
43312;BME280;30041;48.300;16.352;2023-06-24T08:02:56;100363.50;;;24.25;49.30
43312;BME280;30041;48.300;16.352;2023-06-24T08:05:22;100371.59;;;24.37;49.37
43312;BME280;30041;48.300;16.352;2023-06-24T08:07:47;100375.81;;;24.44;49.50
43312;BME280;30041;48.300;16.352;2023-06-24T08:10:13;100375.13;;;24.49;49.49
43312;BME280;30041;48.300;16.352;2023-06-24T08:12:38;100381.97;;;24.52;49.67
43312;BME280;30041;48.300;16.352;2023-06-24T08:15:04;100387.97;;;24.54;49.30
43312;BME280;30041;48.300;16.352;2023-06-24T08:17:30;100388.78;;;24.54;49.67
43312;BME280;30041;48.300;16.352;2023-06-24T08:19:55;100389.38;;;24.56;49.57
43312;BME280;30041;48.300;16.352;2023-06-24T08:22:21;100388.78;;;24.54;49.33
43312;BME280;30041;48.300;16.352;2023-06-24T08:24:46;100394.78;;;24.56;49.29
43312;BME280;30041;48.300;16.352;2023-06-24T08:27:12;100389.59;;;24.55;49.66
43312;BME280;30041;48.300;16.352;2023-06-24T08:29:40;100388.53;;;24.56;49.58
43312;BME280;30041;48.300;16.352;2023-06-24T08:32:06;100404.78;;;24.56;49.54
43312;BME280;30041;48.300;16.352;2023-06-24T08:34:31;100412.09;;;24.55;49.42
43312;BME280;30041;48.300;16.352;2023-06-24T08:36:57;100401.25;;;24.55;49.47
43312;BME280;30041;48.300;16.352;2023-06-24T08:39:22;100409.97;;;24.57;49.67
43312;BME280;30041;48.300;16.352;2023-06-24T08:41:47;100418.09;;;24.57;49.79
43312;BME280;30041;48.300;16.352;2023-06-24T08:44:13;100414.34;;;24.58;49.42
43312;BME280;30041;48.300;16.352;2023-06-24T08:46:38;100414.34;;;24.58;49.33
43312;BME280;30041;48.300;16.352;2023-06-24T08:51:59;100409.97;;;24.57;49.42
43312;BME280;30041;48.300;16.352;2023-06-24T08:54:25;100405.63;;;24.56;49.48
43312;BME280;30041;48.300;16.352;2023-06-24T08:56:52;100411.88;;;24.57;49.49
43312;BME280;30041;48.300;16.352;2023-06-24T08:59:18;100415.63;;;24.56;49.57
43312;BME280;30041;48.300;16.352;2023-06-24T09:01:43;100412.09;;;24.55;49.34
43312;BME280;30041;48.300;16.352;2023-06-24T09:04:09;100416.47;;;24.56;49.59
43312;BME280;30041;48.300;16.352;2023-06-24T09:06:34;100421.63;;;24.58;49.34
43312;BME280;30041;48.300;16.352;2023-06-24T09:09:00;100430.03;;;24.56;49.50
43312;BME280;30041;48.300;16.352;2023-06-24T09:11:26;100425.66;;;24.55;49.69
43312;BME280;30041;48.300;16.352;2023-06-24T09:13:59;100430.25;;;24.55;49.59
43312;BME280;30041;48.300;16.352;2023-06-24T09:16:25;100426.72;;;24.54;50.68
43312;BME280;30041;48.300;16.352;2023-06-24T09:18:52;100440.88;;;24.56;51.20
43312;BME280;30041;48.300;16.352;2023-06-24T09:21:25;100439.78;;;24.57;51.24
43312;BME280;30041;48.300;16.352;2023-06-24T09:23:53;100437.91;;;24.58;50.78
43312;BME280;30041;48.300;16.352;2023-06-24T09:26:18;100438.47;;;24.60;50.88
43312;BME280;30041;48.300;16.352;2023-06-24T09:28:48;100437.06;;;24.57;51.07
43312;BME280;30041;48.300;16.352;2023-06-24T09:31:13;100439.06;;;24.62;50.77
43312;BME280;30041;48.300;16.352;2023-06-24T09:33:39;100445.78;;;24.59;50.83
43312;BME280;30041;48.300;16.352;2023-06-24T09:36:05;100440.47;;;24.64;50.87
43312;BME280;30041;48.300;16.352;2023-06-24T09:38:38;100440.47;;;24.64;50.85
43312;BME280;30041;48.300;16.352;2023-06-24T09:41:04;100444.63;;;24.67;51.08
43312;BME280;30041;48.300;16.352;2023-06-24T09:43:33;100442.13;;;24.65;51.31
43312;BME280;30041;48.300;16.352;2023-06-24T09:46:01;100435.63;;;24.67;51.00
43312;BME280;30041;48.300;16.352;2023-06-24T09:48:26;100436.50;;;24.67;51.07
43312;BME280;30041;48.300;16.352;2023-06-24T09:50:52;100443.19;;;24.64;51.14
43312;BME280;30041;48.300;16.352;2023-06-24T09:53:18;100428.09;;;24.69;51.00
43312;BME280;30041;48.300;16.352;2023-06-24T09:55:43;100426.78;;;24.71;50.82
43312;BME280;30041;48.300;16.352;2023-06-24T09:58:09;100433.50;;;24.69;51.01
43312;BME280;30041;48.300;16.352;2023-06-24T10:00:36;100429.41;;;24.66;51.15
43312;BME280;30041;48.300;16.352;2023-06-24T10:03:02;100428.34;;;24.67;51.10
43312;BME280;30041;48.300;16.352;2023-06-24T10:05:28;100432.69;;;24.68;51.17
43312;BME280;30041;48.300;16.352;2023-06-24T10:07:54;100422.09;;;24.67;50.95
43312;BME280;30041;48.300;16.352;2023-06-24T10:10:19;100427.28;;;24.68;51.33
43312;BME280;30041;48.300;16.352;2023-06-24T10:12:45;100428.59;;;24.65;51.00
43312;BME280;30041;48.300;16.352;2023-06-24T10:15:10;100424.56;;;24.68;51.11
43312;BME280;30041;48.300;16.352;2023-06-24T10:17:37;100423.50;;;24.69;51.15
43312;BME280;30041;48.300;16.352;2023-06-24T10:20:04;100410.78;;;24.70;50.92
43312;BME280;30041;48.300;16.352;2023-06-24T10:22:30;100406.75;;;24.72;50.84
43312;BME280;30041;48.300;16.352;2023-06-24T10:24:59;100409.78;;;24.76;51.04
43312;BME280;30041;48.300;16.352;2023-06-24T10:27:25;100411.09;;;24.85;50.40
43312;BME280;30041;48.300;16.352;2023-06-24T10:29:54;100404.59;;;24.86;50.01
43312;BME280;30041;48.300;16.352;2023-06-24T10:32:21;100390.81;;;24.88;49.71
43312;BME280;30041;48.300;16.352;2023-06-24T10:34:54;100394.56;;;24.86;50.12
43312;BME280;30041;48.300;16.352;2023-06-24T10:37:22;100402.69;;;24.86;49.97
43312;BME280;30041;48.300;16.352;2023-06-24T10:44:50;100408.94;;;24.87;49.63
43312;BME280;30041;48.300;16.352;2023-06-24T10:47:16;100410.06;;;24.74;50.04
43312;BME280;30041;48.300;16.352;2023-06-24T10:49:42;100409.84;;;24.64;50.61
43312;BME280;30041;48.300;16.352;2023-06-24T10:52:11;100408.34;;;24.56;50.74
43312;BME280;30041;48.300;16.352;2023-06-24T10:54:41;100396.09;;;24.54;51.30
43312;BME280;30041;48.300;16.352;2023-06-24T10:57:07;100404.22;;;24.54;51.22
43312;BME280;30041;48.300;16.352;2023-06-24T10:59:42;100405.50;;;24.51;51.18
43312;BME280;30041;48.300;16.352;2023-06-24T11:02:15;100397.38;;;24.51;51.08
43312;BME280;30041;48.300;16.352;2023-06-24T11:04:50;100405.28;;;24.53;51.07
43312;BME280;30041;48.300;16.352;2023-06-24T11:07:20;100408.34;;;24.56;50.70
43312;BME280;30041;48.300;16.352;2023-06-24T11:12:18;100410.53;;;24.71;51.16
43312;BME280;30041;48.300;16.352;2023-06-24T11:14:44;100406.22;;;24.87;50.37
43312;BME280;30041;48.300;16.352;2023-06-24T11:17:10;100407.38;;;24.91;50.05
43312;BME280;30041;48.300;16.352;2023-06-24T11:19:35;100406.06;;;24.94;49.83
43312;BME280;30041;48.300;16.352;2023-06-24T11:22:01;100396.66;;;24.96;49.83
43312;BME280;30041;48.300;16.352;2023-06-24T11:24:27;100405.38;;;24.98;49.46
43312;BME280;30041;48.300;16.352;2023-06-24T11:26:53;100396.16;;;24.99;49.96
43312;BME280;30041;48.300;16.352;2023-06-24T11:29:18;100393.38;;;24.94;49.68
43312;BME280;30041;48.300;16.352;2023-06-24T11:31:48;100394.75;;;24.97;49.81
43312;BME280;30041;48.300;16.352;2023-06-24T11:34:13;100389.09;;;24.98;49.77
43312;BME280;30041;48.300;16.352;2023-06-24T11:36:39;100389.63;;;24.83;50.60
43312;BME280;30041;48.300;16.352;2023-06-24T11:39:04;100391.75;;;24.81;50.54
43312;BME280;30041;48.300;16.352;2023-06-24T11:41:30;100393.16;;;24.84;50.71
43312;BME280;30041;48.300;16.352;2023-06-24T11:43:58;100392.50;;;24.77;50.61
43312;BME280;30041;48.300;16.352;2023-06-24T11:46:27;100390.25;;;24.74;50.93
43312;BME280;30041;48.300;16.352;2023-06-24T11:49:06;100390.72;;;24.71;50.42
43312;BME280;30041;48.300;16.352;2023-06-24T11:51:32;100381.56;;;24.72;50.53
43312;BME280;30041;48.300;16.352;2023-06-24T11:54:02;100387.94;;;24.65;50.72
43312;BME280;30041;48.300;16.352;2023-06-24T11:56:35;100393.00;;;24.62;50.55
43312;BME280;30041;48.300;16.352;2023-06-24T11:59:01;100395.13;;;24.60;50.81
43312;BME280;30041;48.300;16.352;2023-06-24T12:01:32;100393.50;;;24.59;50.71
43312;BME280;30041;48.300;16.352;2023-06-24T12:04:01;100392.09;;;24.56;51.01
43312;BME280;30041;48.300;16.352;2023-06-24T12:06:26;100394.53;;;24.58;50.78
43312;BME280;30041;48.300;16.352;2023-06-24T12:08:52;100382.06;;;24.57;51.11
43312;BME280;30041;48.300;16.352;2023-06-24T12:11:18;100380.97;;;24.58;51.18
43312;BME280;30041;48.300;16.352;2023-06-24T12:13:43;100379.13;;;24.58;50.82
43312;BME280;30041;48.300;16.352;2023-06-24T12:16:09;100382.88;;;24.57;51.12
43312;BME280;30041;48.300;16.352;2023-06-24T12:18:34;100388.06;;;24.59;50.68
43312;BME280;30041;48.300;16.352;2023-06-24T12:21:00;100377.69;;;24.68;50.53
43312;BME280;30041;48.300;16.352;2023-06-24T12:23:25;100386.16;;;24.59;50.77
43312;BME280;30041;48.300;16.352;2023-06-24T12:25:51;100388.38;;;24.62;50.46
43312;BME280;30041;48.300;16.352;2023-06-24T12:28:16;100393.00;;;24.62;50.35
43312;BME280;30041;48.300;16.352;2023-06-24T12:30:42;100384.28;;;24.60;50.28
43312;BME280;30041;48.300;16.352;2023-06-24T12:33:07;100395.13;;;24.60;50.44
43312;BME280;30041;48.300;16.352;2023-06-24T12:35:33;100390.19;;;24.57;50.29
43312;BME280;30041;48.300;16.352;2023-06-24T12:37:58;100392.66;;;24.58;50.45
43312;BME280;30041;48.300;16.352;2023-06-24T12:40:23;100391.81;;;24.58;50.71
43312;BME280;30041;48.300;16.352;2023-06-24T12:42:49;100393.72;;;24.57;50.43
43312;BME280;30041;48.300;16.352;2023-06-24T12:45:15;100392.91;;;24.57;50.47
43312;BME280;30041;48.300;16.352;2023-06-24T12:47:40;100391.38;;;24.61;50.17
43312;BME280;30041;48.300;16.352;2023-06-24T12:50:06;100394.88;;;24.61;50.17
43312;BME280;30041;48.300;16.352;2023-06-24T12:52:33;100397.59;;;24.61;50.35
43312;BME280;30041;48.300;16.352;2023-06-24T12:54:58;100398.69;;;24.60;50.52
43312;BME280;30041;48.300;16.352;2023-06-24T12:57:24;100402.44;;;24.59;50.07